Impacts METAR Board
IDs:

KDFW - Dallas-Ft Worth Intl, TX, US

Updated at: 0300 UTC 20 Aug 2018
Potential Impact None Slight Moderate High
Time 19/15Z 19/16Z 19/17Z 19/18Z 19/19Z 19/20Z 19/21Z 19/22Z 19/23Z 20/00Z 20/01Z 20/02Z 20/03Z
Temp84 88 89 92 92 94 95 90 92 93 90 86 85
Dewpt70 69 69 70 68 68 69 68 69 70 72 71 71
Altim29.87 29.88 29.88 29.88 29.86 29.84 29.82 29.80 29.79 29.79 29.81 29.82 29.84
VIS10 10 10 10 10 10 10 10 10 10 10 10 10
CIG300 180 170 180 180 180 60 100 250 -- 250 250 250
CoverBKNBKNBKNBKNBKNBKNBKNBKNBKNSCTBKNBKNBKN
FltCatVFRVFRVFRVFRVFRVFRVFRVFRVFRVFRVFRVFRVFR
WX--------------TS----------
WDir1802002102702602100170220190170140180
WSpd10 10 8 5 6 9 3 11 8 9 5 5 6
WGst-- -- -- -- -- -- -- -- -- -- -- -- --
Raw hourly METARs
KDFW 191453Z 18010KT 10SM FEW120 SCT180 BKN300 29/21 A2987 RMK AO2 SLP106 T02890211 50009 $
KDFW 191553Z 20010KT 10SM BKN180 BKN230 BKN300 31/21 A2988 RMK AO2 SLP108 T03110206 $
KDFW 191653Z 21008KT 10SM FEW120 BKN170 BKN190 BKN300 32/21 A2988 RMK AO2 SLP108 T03170206 $
KDFW 191753Z 27005KT 10SM FEW050 SCT100 BKN180 BKN300 33/21 A2988 RMK AO2 SLP107 T03330211 10333 20256 50002 $
KDFW 191853Z COR 26006KT 10SM FEW050 SCT100 BKN180 BKN300 33/20 A2986 RMK AO2 SLP101 TCU DSNT E-SE T03330200 $
KDFW 191953Z 21009KT 10SM FEW050 SCT100 BKN180 BKN300 34/20 A2984 RMK AO2 LTG DSNT E SLP094 CB DSNT NE-E MOV E T03440200 $
KDFW 192053Z VRB03KT 10SM BKN060 BKN100 BKN180 BKN300 35/21 A2982 RMK AO2 SLP087 CB DSNT NE-SE-SW MOV E T03500206 58019 $
KDFW 192153Z COR 17011KT 10SM TS SCT060CB BKN100 BKN180 BKN300 32/20 A2980 RMK AO2 WSHFT 2105 TSB48 SLP082 OCNL LTGICCG SW TS SW MOV E CB DSNT NE-SE-S MOV E T03220200 $
KDFW 192253Z 22008KT 10SM FEW060 FEW090 SCT160 BKN250 33/21 A2979 RMK AO2 TSE24 SLP079 TS DSIPTD CB DSNT SE-S MOV E TCU DSNT N-E T03330206 $
KDFW 192353Z 19009KT 10SM FEW060 FEW090 SCT160 SCT250 34/21 A2979 RMK AO2 SLP079 CB DSNT E-S MOV E T03390211 10356 20311 55008 $
KDFW 200053Z 17005KT 10SM FEW070 SCT100 SCT180 BKN250 32/22 A2981 RMK AO2 SLP083 T03220222 $
KDFW 200153Z 14005KT 10SM FEW070 SCT170 BKN250 30/22 A2982 RMK AO2 RAB16E27 SLP088 CB DSNT SW MOV E TCU DSNT NE P0000 T03000217 $
KDFW 200253Z 18006KT 10SM FEW070 FEW170 BKN250 29/22 A2984 RMK AO2 SLP095 OCNL LTGIC DSNT SW CB DSNT SW MOV E 60000 T02940217 53016 $



Page loaded:  03:30 UTC  |   08:30 PM Pacific  |   09:30 PM Mountain  |   10:30 PM Central  |   11:30 PM Eastern

 

ADVISORIES

FORECASTS

FORECASTS

OBSERVATIONS

USER TOOLS

ABOUT US